Accueil
METAR-TAF:

METAR-TAF

Aéroports :

Army Air Corps Middle Wallop

Middle Wallop, Angleterre

latitude: 51-09N, longitude: 001-34W, altitude: 91 m

Observation

Le bulletin a été fait il y a 34 minutes, à 00:50 UTC
Vent 4 kt de nord/nord-ouest
Température 6°C
Humidité 70%
Pression 1034 hPa
Visibilité 10 km ou plus

METAR: EGVP 270050Z AUTO 34004KT 9999 // FEW038/// 06/01 Q1034

Heure: 01:24 (01:24 UTC)

Prévision

Le bulletin a été fait il y a 5 heures et 51 minutes, à 19:33 UTC
Prévision valable du 26 à 21 UTC au 27 à 01 UTC
Vent 5 kt de nord-ouest
Visibilité 10 km ou plus
Nuages épars à une hauteur de 4000 ft

TAF: EGVP 261933Z 2621/2701 31005KT 9999 SCT040

Observations et prévisions météorologiques de plus de 4000 aéroports (messages METAR et TAF).

Les stations disponibles sont représentées par des disques jaunes et rouges sur la carte.

Passer la souris dessus pour voir le nom de la station.

Cliquer dessus pour voir les observations et prévisions météorologiques.

Pour changer de carte: cliquez sur les boutons verts avec une croix noire pour zoomer, sur le bouton vert avec un tiret pour effectuer un zoom arrière, ou sur les flèches vertes pour les cartes adjacentes.


METAR-TAF: